sensor_id;sensor_type;location;lat;lon;timestamp;P1;durP1;ratioP1;P2;durP2;ratioP2
62673;SDS011;62269;47.594;17.638;2023-07-13T00:00:09;6.50;;;4.45;;
62673;SDS011;62269;47.594;17.638;2023-07-13T00:01:07;5.72;;;3.83;;
62673;SDS011;62269;47.594;17.638;2023-07-13T00:02:04;10.25;;;4.03;;
62673;SDS011;62269;47.594;17.638;2023-07-13T00:03:01;4.75;;;3.70;;
62673;SDS011;62269;47.594;17.638;2023-07-13T00:03:59;4.68;;;4.00;;
62673;SDS011;62269;47.594;17.638;2023-07-13T00:04:56;6.12;;;3.90;;
62673;SDS011;62269;47.594;17.638;2023-07-13T00:06:00;7.00;;;3.92;;
62673;SDS011;62269;47.594;17.638;2023-07-13T00:06:57;4.07;;;3.60;;
62673;SDS011;62269;47.594;17.638;2023-07-13T00:07:54;5.15;;;3.87;;
62673;SDS011;62269;47.594;17.638;2023-07-13T00:08:52;7.40;;;3.80;;
62673;SDS011;62269;47.594;17.638;2023-07-13T00:09:49;4.70;;;3.53;;
62673;SDS011;62269;47.594;17.638;2023-07-13T00:10:46;4.70;;;3.75;;
62673;SDS011;62269;47.594;17.638;2023-07-13T00:11:43;6.25;;;3.80;;
62673;SDS011;62269;47.594;17.638;2023-07-13T00:12:41;5.28;;;4.12;;
62673;SDS011;62269;47.594;17.638;2023-07-13T00:13:39;5.00;;;3.75;;
62673;SDS011;62269;47.594;17.638;2023-07-13T00:14:37;5.35;;;3.90;;
62673;SDS011;62269;47.594;17.638;2023-07-13T00:15:34;6.30;;;3.87;;
62673;SDS011;62269;47.594;17.638;2023-07-13T00:16:33;4.85;;;3.90;;
62673;SDS011;62269;47.594;17.638;2023-07-13T00:17:31;5.10;;;4.03;;
62673;SDS011;62269;47.594;17.638;2023-07-13T00:18:28;5.45;;;3.62;;
62673;SDS011;62269;47.594;17.638;2023-07-13T00:19:26;6.62;;;3.87;;
62673;SDS011;62269;47.594;17.638;2023-07-13T00:20:24;6.35;;;4.05;;
62673;SDS011;62269;47.594;17.638;2023-07-13T00:21:21;6.20;;;4.40;;
62673;SDS011;62269;47.594;17.638;2023-07-13T00:22:19;5.40;;;3.87;;
62673;SDS011;62269;47.594;17.638;2023-07-13T00:23:16;5.35;;;3.83;;
62673;SDS011;62269;47.594;17.638;2023-07-13T00:24:15;4.47;;;4.07;;
62673;SDS011;62269;47.594;17.638;2023-07-13T00:25:19;7.95;;;4.28;;
62673;SDS011;62269;47.594;17.638;2023-07-13T00:26:16;4.75;;;3.85;;
62673;SDS011;62269;47.594;17.638;2023-07-13T00:27:14;5.95;;;4.10;;
62673;SDS011;62269;47.594;17.638;2023-07-13T00:28:11;4.07;;;3.67;;
62673;SDS011;62269;47.594;17.638;2023-07-13T00:29:08;5.07;;;3.80;;
62673;SDS011;62269;47.594;17.638;2023-07-13T00:30:05;5.68;;;4.18;;
62673;SDS011;62269;47.594;17.638;2023-07-13T00:31:03;5.10;;;3.90;;
62673;SDS011;62269;47.594;17.638;2023-07-13T00:32:04;5.80;;;3.83;;
62673;SDS011;62269;47.594;17.638;2023-07-13T00:33:02;4.70;;;3.90;;
62673;SDS011;62269;47.594;17.638;2023-07-13T00:34:13;4.93;;;3.87;;
62673;SDS011;62269;47.594;17.638;2023-07-13T00:35:10;5.37;;;3.70;;
62673;SDS011;62269;47.594;17.638;2023-07-13T00:36:10;5.22;;;4.12;;
62673;SDS011;62269;47.594;17.638;2023-07-13T00:37:07;4.78;;;3.95;;
62673;SDS011;62269;47.594;17.638;2023-07-13T00:38:04;5.72;;;4.10;;
62673;SDS011;62269;47.594;17.638;2023-07-13T00:39:02;7.82;;;4.40;;
62673;SDS011;62269;47.594;17.638;2023-07-13T00:40:00;6.82;;;4.80;;
62673;SDS011;62269;47.594;17.638;2023-07-13T00:40:57;6.43;;;4.45;;
62673;SDS011;62269;47.594;17.638;2023-07-13T00:41:55;6.85;;;4.30;;
62673;SDS011;62269;47.594;17.638;2023-07-13T00:42:52;5.62;;;4.05;;
62673;SDS011;62269;47.594;17.638;2023-07-13T00:43:50;5.35;;;4.25;;
62673;SDS011;62269;47.594;17.638;2023-07-13T00:46:24;7.82;;;4.15;;
62673;SDS011;62269;47.594;17.638;2023-07-13T00:47:23;5.07;;;4.55;;
62673;SDS011;62269;47.594;17.638;2023-07-13T00:48:21;6.03;;;4.40;;
62673;SDS011;62269;47.594;17.638;2023-07-13T00:49:23;7.20;;;4.43;;
62673;SDS011;62269;47.594;17.638;2023-07-13T00:50:21;5.70;;;4.00;;
62673;SDS011;62269;47.594;17.638;2023-07-13T00:51:20;5.55;;;4.28;;
62673;SDS011;62269;47.594;17.638;2023-07-13T00:52:21;6.00;;;4.28;;
62673;SDS011;62269;47.594;17.638;2023-07-13T00:53:18;7.90;;;5.82;;
62673;SDS011;62269;47.594;17.638;2023-07-13T00:54:18;5.07;;;4.37;;
62673;SDS011;62269;47.594;17.638;2023-07-13T00:55:18;6.57;;;4.37;;
62673;SDS011;62269;47.594;17.638;2023-07-13T00:56:15;6.25;;;4.50;;
62673;SDS011;62269;47.594;17.638;2023-07-13T00:57:14;5.45;;;4.53;;
62673;SDS011;62269;47.594;17.638;2023-07-13T00:58:13;4.78;;;4.30;;
62673;SDS011;62269;47.594;17.638;2023-07-13T00:59:10;5.43;;;4.07;;
62673;SDS011;62269;47.594;17.638;2023-07-13T01:00:09;4.97;;;4.05;;
62673;SDS011;62269;47.594;17.638;2023-07-13T01:01:07;5.47;;;4.25;;
62673;SDS011;62269;47.594;17.638;2023-07-13T01:02:04;5.35;;;4.30;;
62673;SDS011;62269;47.594;17.638;2023-07-13T01:03:01;7.45;;;4.62;;
62673;SDS011;62269;47.594;17.638;2023-07-13T01:04:00;7.18;;;4.50;;
62673;SDS011;62269;47.594;17.638;2023-07-13T01:04:58;6.43;;;4.75;;
62673;SDS011;62269;47.594;17.638;2023-07-13T01:05:55;9.23;;;4.35;;
62673;SDS011;62269;47.594;17.638;2023-07-13T01:06:52;6.47;;;4.20;;
62673;SDS011;62269;47.594;17.638;2023-07-13T01:07:50;5.40;;;4.43;;
62673;SDS011;62269;47.594;17.638;2023-07-13T01:08:48;8.63;;;4.80;;
62673;SDS011;62269;47.594;17.638;2023-07-13T01:09:45;7.22;;;4.53;;
62673;SDS011;62269;47.594;17.638;2023-07-13T01:10:56;6.07;;;4.50;;
62673;SDS011;62269;47.594;17.638;2023-07-13T01:11:54;5.07;;;4.32;;
62673;SDS011;62269;47.594;17.638;2023-07-13T01:12:52;5.75;;;4.70;;
62673;SDS011;62269;47.594;17.638;2023-07-13T01:13:50;6.62;;;4.45;;
62673;SDS011;62269;47.594;17.638;2023-07-13T01:14:47;9.02;;;5.00;;
62673;SDS011;62269;47.594;17.638;2023-07-13T01:15:45;5.22;;;4.43;;
62673;SDS011;62269;47.594;17.638;2023-07-13T01:16:44;10.52;;;5.90;;
62673;SDS011;62269;47.594;17.638;2023-07-13T01:17:44;5.40;;;4.43;;
62673;SDS011;62269;47.594;17.638;2023-07-13T01:18:41;5.95;;;4.65;;
62673;SDS011;62269;47.594;17.638;2023-07-13T01:19:42;5.18;;;4.68;;
62673;SDS011;62269;47.594;17.638;2023-07-13T01:20:40;9.77;;;4.60;;
62673;SDS011;62269;47.594;17.638;2023-07-13T01:21:38;8.88;;;4.70;;
62673;SDS011;62269;47.594;17.638;2023-07-13T01:22:39;6.28;;;4.40;;
62673;SDS011;62269;47.594;17.638;2023-07-13T01:23:36;5.65;;;4.05;;
62673;SDS011;62269;47.594;17.638;2023-07-13T01:24:33;6.55;;;4.28;;
62673;SDS011;62269;47.594;17.638;2023-07-13T01:25:31;6.37;;;4.18;;
62673;SDS011;62269;47.594;17.638;2023-07-13T01:26:28;5.82;;;4.60;;
62673;SDS011;62269;47.594;17.638;2023-07-13T01:27:25;4.90;;;4.07;;
62673;SDS011;62269;47.594;17.638;2023-07-13T01:28:23;5.85;;;4.07;;
62673;SDS011;62269;47.594;17.638;2023-07-13T01:29:23;6.37;;;4.40;;
62673;SDS011;62269;47.594;17.638;2023-07-13T01:30:20;5.65;;;4.12;;
62673;SDS011;62269;47.594;17.638;2023-07-13T01:31:17;6.60;;;4.20;;
62673;SDS011;62269;47.594;17.638;2023-07-13T01:32:21;6.70;;;4.25;;
62673;SDS011;62269;47.594;17.638;2023-07-13T01:33:21;5.65;;;4.25;;
62673;SDS011;62269;47.594;17.638;2023-07-13T01:34:18;6.55;;;4.15;;
62673;SDS011;62269;47.594;17.638;2023-07-13T01:35:15;5.32;;;4.10;;
62673;SDS011;62269;47.594;17.638;2023-07-13T01:36:13;5.25;;;4.22;;
62673;SDS011;62269;47.594;17.638;2023-07-13T01:37:11;6.07;;;4.22;;
62673;SDS011;62269;47.594;17.638;2023-07-13T01:38:08;5.75;;;4.40;;
62673;SDS011;62269;47.594;17.638;2023-07-13T01:39:06;6.20;;;4.40;;
62673;SDS011;62269;47.594;17.638;2023-07-13T01:40:04;5.87;;;4.20;;
62673;SDS011;62269;47.594;17.638;2023-07-13T01:41:02;5.20;;;4.37;;
62673;SDS011;62269;47.594;17.638;2023-07-13T01:41:59;5.90;;;4.10;;
62673;SDS011;62269;47.594;17.638;2023-07-13T01:42:57;9.20;;;4.10;;
62673;SDS011;62269;47.594;17.638;2023-07-13T01:43:55;5.90;;;4.03;;
62673;SDS011;62269;47.594;17.638;2023-07-13T01:44:52;6.15;;;4.20;;
62673;SDS011;62269;47.594;17.638;2023-07-13T01:45:49;5.22;;;4.05;;
62673;SDS011;62269;47.594;17.638;2023-07-13T01:46:46;5.75;;;4.72;;
62673;SDS011;62269;47.594;17.638;2023-07-13T01:47:43;5.95;;;3.97;;
62673;SDS011;62269;47.594;17.638;2023-07-13T01:48:41;4.85;;;3.97;;
62673;SDS011;62269;47.594;17.638;2023-07-13T01:49:38;4.75;;;4.05;;
62673;SDS011;62269;47.594;17.638;2023-07-13T01:50:35;5.30;;;4.07;;
62673;SDS011;62269;47.594;17.638;2023-07-13T01:51:33;6.32;;;4.22;;
62673;SDS011;62269;47.594;17.638;2023-07-13T01:52:30;6.28;;;4.20;;
62673;SDS011;62269;47.594;17.638;2023-07-13T01:53:27;7.32;;;4.43;;
62673;SDS011;62269;47.594;17.638;2023-07-13T01:54:24;5.32;;;4.12;;
62673;SDS011;62269;47.594;17.638;2023-07-13T01:55:21;4.68;;;4.05;;
62673;SDS011;62269;47.594;17.638;2023-07-13T01:56:18;7.60;;;4.30;;
62673;SDS011;62269;47.594;17.638;2023-07-13T01:57:16;6.22;;;4.00;;
62673;SDS011;62269;47.594;17.638;2023-07-13T01:58:13;6.32;;;4.20;;
62673;SDS011;62269;47.594;17.638;2023-07-13T01:59:10;6.30;;;4.07;;
62673;SDS011;62269;47.594;17.638;2023-07-13T02:00:08;12.20;;;4.57;;
62673;SDS011;62269;47.594;17.638;2023-07-13T02:01:06;8.15;;;4.43;;
62673;SDS011;62269;47.594;17.638;2023-07-13T02:02:04;6.35;;;5.12;;
62673;SDS011;62269;47.594;17.638;2023-07-13T02:03:01;8.60;;;4.50;;
62673;SDS011;62269;47.594;17.638;2023-07-13T02:03:58;6.05;;;4.12;;
62673;SDS011;62269;47.594;17.638;2023-07-13T02:04:55;5.85;;;4.20;;
62673;SDS011;62269;47.594;17.638;2023-07-13T02:05:53;6.15;;;4.10;;
62673;SDS011;62269;47.594;17.638;2023-07-13T02:06:50;7.68;;;4.50;;
62673;SDS011;62269;47.594;17.638;2023-07-13T02:07:47;6.07;;;4.30;;
62673;SDS011;62269;47.594;17.638;2023-07-13T02:08:45;5.00;;;3.87;;
62673;SDS011;62269;47.594;17.638;2023-07-13T02:09:43;5.95;;;4.18;;
62673;SDS011;62269;47.594;17.638;2023-07-13T02:10:40;5.37;;;4.30;;
62673;SDS011;62269;47.594;17.638;2023-07-13T02:11:37;6.50;;;4.30;;
62673;SDS011;62269;47.594;17.638;2023-07-13T02:12:34;4.80;;;4.20;;
62673;SDS011;62269;47.594;17.638;2023-07-13T02:13:31;6.30;;;4.62;;
62673;SDS011;62269;47.594;17.638;2023-07-13T02:14:28;5.75;;;3.80;;
62673;SDS011;62269;47.594;17.638;2023-07-13T02:15:25;7.18;;;4.53;;
62673;SDS011;62269;47.594;17.638;2023-07-13T02:16:22;8.40;;;4.45;;
62673;SDS011;62269;47.594;17.638;2023-07-13T02:17:19;6.53;;;4.00;;
62673;SDS011;62269;47.594;17.638;2023-07-13T02:18:17;9.98;;;4.30;;
62673;SDS011;62269;47.594;17.638;2023-07-13T02:19:14;5.78;;;4.18;;
62673;SDS011;62269;47.594;17.638;2023-07-13T02:20:11;5.32;;;4.18;;
62673;SDS011;62269;47.594;17.638;2023-07-13T02:21:08;5.68;;;5.03;;
62673;SDS011;62269;47.594;17.638;2023-07-13T02:22:05;5.10;;;4.22;;
62673;SDS011;62269;47.594;17.638;2023-07-13T02:23:03;7.47;;;4.50;;
62673;SDS011;62269;47.594;17.638;2023-07-13T02:24:02;6.32;;;4.37;;
62673;SDS011;62269;47.594;17.638;2023-07-13T02:25:00;7.53;;;4.30;;
62673;SDS011;62269;47.594;17.638;2023-07-13T02:25:58;10.43;;;4.40;;
62673;SDS011;62269;47.594;17.638;2023-07-13T02:26:59;5.40;;;4.40;;
62673;SDS011;62269;47.594;17.638;2023-07-13T02:27:56;6.10;;;4.07;;
62673;SDS011;62269;47.594;17.638;2023-07-13T02:28:53;7.40;;;4.40;;
62673;SDS011;62269;47.594;17.638;2023-07-13T02:29:50;7.47;;;4.37;;
62673;SDS011;62269;47.594;17.638;2023-07-13T02:30:48;7.53;;;4.05;;
62673;SDS011;62269;47.594;17.638;2023-07-13T02:31:45;5.12;;;4.40;;
62673;SDS011;62269;47.594;17.638;2023-07-13T02:32:42;6.85;;;4.30;;
62673;SDS011;62269;47.594;17.638;2023-07-13T02:33:41;7.80;;;4.28;;
62673;SDS011;62269;47.594;17.638;2023-07-13T02:34:40;7.62;;;4.28;;
62673;SDS011;62269;47.594;17.638;2023-07-13T02:35:37;10.48;;;4.57;;
62673;SDS011;62269;47.594;17.638;2023-07-13T02:36:34;5.37;;;4.43;;
62673;SDS011;62269;47.594;17.638;2023-07-13T02:37:31;5.60;;;4.70;;
62673;SDS011;62269;47.594;17.638;2023-07-13T02:38:28;7.03;;;4.37;;
62673;SDS011;62269;47.594;17.638;2023-07-13T02:39:25;7.53;;;4.40;;
62673;SDS011;62269;47.594;17.638;2023-07-13T02:40:23;6.18;;;4.62;;
62673;SDS011;62269;47.594;17.638;2023-07-13T02:41:20;8.60;;;4.20;;
62673;SDS011;62269;47.594;17.638;2023-07-13T02:42:17;7.15;;;4.07;;
62673;SDS011;62269;47.594;17.638;2023-07-13T02:43:14;4.95;;;4.05;;
62673;SDS011;62269;47.594;17.638;2023-07-13T02:44:14;9.10;;;4.30;;
62673;SDS011;62269;47.594;17.638;2023-07-13T02:45:12;6.28;;;4.30;;
62673;SDS011;62269;47.594;17.638;2023-07-13T02:46:10;5.80;;;4.20;;
62673;SDS011;62269;47.594;17.638;2023-07-13T02:47:08;6.03;;;3.87;;
62673;SDS011;62269;47.594;17.638;2023-07-13T02:48:05;9.45;;;4.65;;
62673;SDS011;62269;47.594;17.638;2023-07-13T02:49:02;6.90;;;4.05;;
62673;SDS011;62269;47.594;17.638;2023-07-13T02:50:00;6.87;;;4.22;;
62673;SDS011;62269;47.594;17.638;2023-07-13T02:50:57;9.63;;;4.80;;
62673;SDS011;62269;47.594;17.638;2023-07-13T02:51:54;7.57;;;4.55;;
62673;SDS011;62269;47.594;17.638;2023-07-13T02:52:51;5.90;;;4.07;;
62673;SDS011;62269;47.594;17.638;2023-07-13T02:53:48;6.25;;;4.28;;
62673;SDS011;62269;47.594;17.638;2023-07-13T02:54:45;6.97;;;4.55;;
62673;SDS011;62269;47.594;17.638;2023-07-13T02:55:43;8.52;;;4.80;;
62673;SDS011;62269;47.594;17.638;2023-07-13T02:56:43;6.30;;;4.20;;
62673;SDS011;62269;47.594;17.638;2023-07-13T02:57:41;7.32;;;4.75;;
62673;SDS011;62269;47.594;17.638;2023-07-13T02:58:38;9.32;;;4.50;;
62673;SDS011;62269;47.594;17.638;2023-07-13T02:59:37;5.68;;;4.10;;
62673;SDS011;62269;47.594;17.638;2023-07-13T03:00:34;8.10;;;4.75;;
62673;SDS011;62269;47.594;17.638;2023-07-13T03:01:37;9.50;;;4.62;;
62673;SDS011;62269;47.594;17.638;2023-07-13T03:02:35;7.78;;;4.18;;
62673;SDS011;62269;47.594;17.638;2023-07-13T03:03:32;6.57;;;3.97;;
62673;SDS011;62269;47.594;17.638;2023-07-13T03:04:29;8.43;;;4.10;;
62673;SDS011;62269;47.594;17.638;2023-07-13T03:05:26;5.55;;;4.75;;
62673;SDS011;62269;47.594;17.638;2023-07-13T03:06:23;6.65;;;4.28;;
62673;SDS011;62269;47.594;17.638;2023-07-13T03:07:21;9.48;;;4.60;;
62673;SDS011;62269;47.594;17.638;2023-07-13T03:08:18;5.30;;;4.12;;
62673;SDS011;62269;47.594;17.638;2023-07-13T03:09:15;8.13;;;4.10;;
62673;SDS011;62269;47.594;17.638;2023-07-13T03:10:12;7.18;;;4.53;;
62673;SDS011;62269;47.594;17.638;2023-07-13T03:11:11;7.00;;;4.25;;
62673;SDS011;62269;47.594;17.638;2023-07-13T03:12:09;5.75;;;4.12;;
62673;SDS011;62269;47.594;17.638;2023-07-13T03:13:06;6.18;;;3.97;;
62673;SDS011;62269;47.594;17.638;2023-07-13T03:14:04;6.35;;;4.87;;
62673;SDS011;62269;47.594;17.638;2023-07-13T03:15:01;9.77;;;5.10;;
62673;SDS011;62269;47.594;17.638;2023-07-13T03:15:58;6.68;;;5.12;;
62673;SDS011;62269;47.594;17.638;2023-07-13T03:16:55;8.68;;;4.37;;
62673;SDS011;62269;47.594;17.638;2023-07-13T03:17:53;9.32;;;4.20;;
62673;SDS011;62269;47.594;17.638;2023-07-13T03:18:50;8.18;;;4.55;;
62673;SDS011;62269;47.594;17.638;2023-07-13T03:19:47;5.20;;;4.22;;
62673;SDS011;62269;47.594;17.638;2023-07-13T03:20:50;11.07;;;4.10;;
62673;SDS011;62269;47.594;17.638;2023-07-13T03:21:48;6.50;;;4.50;;
62673;SDS011;62269;47.594;17.638;2023-07-13T03:22:45;5.80;;;4.30;;
62673;SDS011;62269;47.594;17.638;2023-07-13T03:23:42;7.62;;;4.57;;
62673;SDS011;62269;47.594;17.638;2023-07-13T03:24:39;5.65;;;4.45;;
62673;SDS011;62269;47.594;17.638;2023-07-13T03:25:36;8.82;;;4.45;;
62673;SDS011;62269;47.594;17.638;2023-07-13T03:26:33;5.30;;;4.45;;
62673;SDS011;62269;47.594;17.638;2023-07-13T03:27:30;4.95;;;4.00;;
62673;SDS011;62269;47.594;17.638;2023-07-13T03:28:28;5.45;;;4.37;;
62673;SDS011;62269;47.594;17.638;2023-07-13T03:29:25;7.10;;;4.37;;
62673;SDS011;62269;47.594;17.638;2023-07-13T03:30:22;7.32;;;4.32;;
62673;SDS011;62269;47.594;17.638;2023-07-13T03:31:21;6.50;;;4.78;;
62673;SDS011;62269;47.594;17.638;2023-07-13T03:32:20;7.00;;;5.10;;
62673;SDS011;62269;47.594;17.638;2023-07-13T03:33:17;7.18;;;4.25;;
62673;SDS011;62269;47.594;17.638;2023-07-13T03:34:14;7.18;;;4.37;;
62673;SDS011;62269;47.594;17.638;2023-07-13T03:35:11;9.20;;;4.93;;
62673;SDS011;62269;47.594;17.638;2023-07-13T03:36:11;6.07;;;4.75;;
62673;SDS011;62269;47.594;17.638;2023-07-13T03:37:10;8.70;;;4.72;;
62673;SDS011;62269;47.594;17.638;2023-07-13T03:38:07;6.85;;;4.40;;
62673;SDS011;62269;47.594;17.638;2023-07-13T03:39:04;7.62;;;4.68;;
62673;SDS011;62269;47.594;17.638;2023-07-13T03:40:05;4.87;;;4.30;;
62673;SDS011;62269;47.594;17.638;2023-07-13T03:41:05;6.15;;;4.40;;
62673;SDS011;62269;47.594;17.638;2023-07-13T03:42:02;8.38;;;4.43;;
62673;SDS011;62269;47.594;17.638;2023-07-13T03:43:00;6.80;;;4.50;;
62673;SDS011;62269;47.594;17.638;2023-07-13T03:43:59;8.68;;;4.85;;
62673;SDS011;62269;47.594;17.638;2023-07-13T03:44:56;7.55;;;4.60;;
62673;SDS011;62269;47.594;17.638;2023-07-13T03:45:53;10.63;;;4.82;;
62673;SDS011;62269;47.594;17.638;2023-07-13T03:46:50;10.07;;;5.05;;
62673;SDS011;62269;47.594;17.638;2023-07-13T03:47:47;8.55;;;4.87;;
62673;SDS011;62269;47.594;17.638;2023-07-13T03:48:45;8.63;;;4.82;;
62673;SDS011;62269;47.594;17.638;2023-07-13T03:49:42;13.62;;;5.10;;
62673;SDS011;62269;47.594;17.638;2023-07-13T03:50:39;9.10;;;5.07;;
62673;SDS011;62269;47.594;17.638;2023-07-13T03:51:37;7.75;;;4.80;;
62673;SDS011;62269;47.594;17.638;2023-07-13T03:52:34;8.30;;;5.35;;
62673;SDS011;62269;47.594;17.638;2023-07-13T03:53:30;11.32;;;5.68;;
62673;SDS011;62269;47.594;17.638;2023-07-13T03:54:28;8.68;;;4.80;;
62673;SDS011;62269;47.594;17.638;2023-07-13T03:55:25;9.18;;;5.45;;
62673;SDS011;62269;47.594;17.638;2023-07-13T03:56:23;10.75;;;4.85;;
62673;SDS011;62269;47.594;17.638;2023-07-13T03:57:20;10.48;;;5.10;;
62673;SDS011;62269;47.594;17.638;2023-07-13T03:58:23;10.77;;;6.03;;
62673;SDS011;62269;47.594;17.638;2023-07-13T03:59:27;8.23;;;5.25;;
62673;SDS011;62269;47.594;17.638;2023-07-13T04:00:24;8.82;;;5.20;;
62673;SDS011;62269;47.594;17.638;2023-07-13T04:01:21;10.75;;;5.47;;
62673;SDS011;62269;47.594;17.638;2023-07-13T04:02:19;10.05;;;5.85;;
62673;SDS011;62269;47.594;17.638;2023-07-13T04:03:17;13.35;;;6.20;;
62673;SDS011;62269;47.594;17.638;2023-07-13T04:04:14;12.18;;;5.53;;
62673;SDS011;62269;47.594;17.638;2023-07-13T04:05:12;11.70;;;5.85;;
62673;SDS011;62269;47.594;17.638;2023-07-13T04:06:13;9.98;;;5.18;;
62673;SDS011;62269;47.594;17.638;2023-07-13T04:07:17;10.52;;;5.35;;
62673;SDS011;62269;47.594;17.638;2023-07-13T04:08:15;7.97;;;4.65;;
62673;SDS011;62269;47.594;17.638;2023-07-13T04:09:12;9.55;;;5.03;;
62673;SDS011;62269;47.594;17.638;2023-07-13T04:10:09;7.28;;;5.30;;
62673;SDS011;62269;47.594;17.638;2023-07-13T04:11:06;7.40;;;5.20;;
62673;SDS011;62269;47.594;17.638;2023-07-13T04:12:04;8.05;;;5.22;;
62673;SDS011;62269;47.594;17.638;2023-07-13T04:13:01;7.95;;;5.57;;
62673;SDS011;62269;47.594;17.638;2023-07-13T04:13:59;8.30;;;5.50;;
62673;SDS011;62269;47.594;17.638;2023-07-13T04:14:56;10.57;;;5.53;;
62673;SDS011;62269;47.594;17.638;2023-07-13T04:15:53;8.48;;;5.70;;
62673;SDS011;62269;47.594;17.638;2023-07-13T04:16:51;7.47;;;5.47;;
62673;SDS011;62269;47.594;17.638;2023-07-13T04:17:48;8.07;;;5.80;;
62673;SDS011;62269;47.594;17.638;2023-07-13T04:18:45;13.23;;;7.03;;
62673;SDS011;62269;47.594;17.638;2023-07-13T04:19:43;9.00;;;6.20;;
62673;SDS011;62269;47.594;17.638;2023-07-13T04:20:40;9.82;;;5.57;;
62673;SDS011;62269;47.594;17.638;2023-07-13T04:21:37;9.00;;;6.60;;
62673;SDS011;62269;47.594;17.638;2023-07-13T04:22:35;9.48;;;6.18;;
62673;SDS011;62269;47.594;17.638;2023-07-13T04:23:32;10.90;;;6.12;;
62673;SDS011;62269;47.594;17.638;2023-07-13T04:24:29;8.50;;;5.85;;
62673;SDS011;62269;47.594;17.638;2023-07-13T04:25:26;10.55;;;6.28;;
62673;SDS011;62269;47.594;17.638;2023-07-13T04:26:23;9.55;;;6.20;;
62673;SDS011;62269;47.594;17.638;2023-07-13T04:27:20;11.07;;;6.00;;
62673;SDS011;62269;47.594;17.638;2023-07-13T04:28:21;6.95;;;5.50;;
62673;SDS011;62269;47.594;17.638;2023-07-13T04:29:20;9.38;;;6.60;;
62673;SDS011;62269;47.594;17.638;2023-07-13T04:30:17;9.77;;;5.65;;
62673;SDS011;62269;47.594;17.638;2023-07-13T04:31:14;9.45;;;5.57;;
62673;SDS011;62269;47.594;17.638;2023-07-13T04:32:11;9.07;;;5.53;;
62673;SDS011;62269;47.594;17.638;2023-07-13T04:33:08;6.93;;;5.32;;
62673;SDS011;62269;47.594;17.638;2023-07-13T04:34:05;8.60;;;5.93;;
62673;SDS011;62269;47.594;17.638;2023-07-13T04:35:03;7.60;;;5.40;;
62673;SDS011;62269;47.594;17.638;2023-07-13T04:36:00;14.68;;;5.35;;
62673;SDS011;62269;47.594;17.638;2023-07-13T04:36:58;10.18;;;5.60;;
62673;SDS011;62269;47.594;17.638;2023-07-13T04:37:55;8.88;;;5.12;;
62673;SDS011;62269;47.594;17.638;2023-07-13T04:38:52;7.60;;;5.78;;
62673;SDS011;62269;47.594;17.638;2023-07-13T04:39:50;6.57;;;4.65;;
62673;SDS011;62269;47.594;17.638;2023-07-13T04:40:47;12.30;;;5.15;;
62673;SDS011;62269;47.594;17.638;2023-07-13T04:41:44;7.37;;;5.28;;
62673;SDS011;62269;47.594;17.638;2023-07-13T04:42:41;10.35;;;5.87;;
62673;SDS011;62269;47.594;17.638;2023-07-13T04:43:39;8.85;;;4.97;;
62673;SDS011;62269;47.594;17.638;2023-07-13T04:44:36;7.75;;;4.75;;
62673;SDS011;62269;47.594;17.638;2023-07-13T04:45:33;8.75;;;5.20;;
62673;SDS011;62269;47.594;17.638;2023-07-13T04:46:31;18.05;;;6.15;;
62673;SDS011;62269;47.594;17.638;2023-07-13T04:47:30;7.05;;;4.60;;
62673;SDS011;62269;47.594;17.638;2023-07-13T04:48:27;7.78;;;4.78;;
62673;SDS011;62269;47.594;17.638;2023-07-13T04:49:24;10.93;;;5.00;;
62673;SDS011;62269;47.594;17.638;2023-07-13T04:50:21;13.00;;;5.12;;
62673;SDS011;62269;47.594;17.638;2023-07-13T04:51:19;10.02;;;4.78;;
62673;SDS011;62269;47.594;17.638;2023-07-13T04:52:16;6.43;;;4.78;;
62673;SDS011;62269;47.594;17.638;2023-07-13T04:53:13;9.35;;;5.00;;
62673;SDS011;62269;47.594;17.638;2023-07-13T04:54:10;14.02;;;5.03;;
62673;SDS011;62269;47.594;17.638;2023-07-13T04:55:08;7.80;;;4.93;;
62673;SDS011;62269;47.594;17.638;2023-07-13T04:56:05;8.68;;;4.32;;
62673;SDS011;62269;47.594;17.638;2023-07-13T04:57:02;5.93;;;4.40;;
62673;SDS011;62269;47.594;17.638;2023-07-13T04:58:03;9.98;;;5.10;;
62673;SDS011;62269;47.594;17.638;2023-07-13T04:59:01;7.18;;;4.95;;
62673;SDS011;62269;47.594;17.638;2023-07-13T04:59:58;6.87;;;4.93;;
62673;SDS011;62269;47.594;17.638;2023-07-13T05:01:01;8.02;;;4.87;;
62673;SDS011;62269;47.594;17.638;2023-07-13T05:01:59;7.55;;;4.65;;
62673;SDS011;62269;47.594;17.638;2023-07-13T05:02:58;9.55;;;4.90;;
62673;SDS011;62269;47.594;17.638;2023-07-13T05:03:55;8.85;;;4.70;;
62673;SDS011;62269;47.594;17.638;2023-07-13T05:04:55;8.48;;;4.60;;
62673;SDS011;62269;47.594;17.638;2023-07-13T05:05:59;8.82;;;4.75;;
62673;SDS011;62269;47.594;17.638;2023-07-13T05:07:00;8.40;;;4.57;;
62673;SDS011;62269;47.594;17.638;2023-07-13T05:07:57;9.63;;;5.35;;
62673;SDS011;62269;47.594;17.638;2023-07-13T05:08:54;11.23;;;5.62;;
62673;SDS011;62269;47.594;17.638;2023-07-13T05:09:51;8.07;;;5.18;;
62673;SDS011;62269;47.594;17.638;2023-07-13T05:10:49;9.80;;;4.97;;
62673;SDS011;62269;47.594;17.638;2023-07-13T05:11:47;14.63;;;5.70;;
62673;SDS011;62269;47.594;17.638;2023-07-13T05:12:44;12.90;;;5.32;;
62673;SDS011;62269;47.594;17.638;2023-07-13T05:13:41;6.57;;;4.45;;
62673;SDS011;62269;47.594;17.638;2023-07-13T05:14:38;4.45;;;3.83;;
62673;SDS011;62269;47.594;17.638;2023-07-13T05:15:35;7.93;;;4.50;;
62673;SDS011;62269;47.594;17.638;2023-07-13T05:16:32;9.77;;;4.20;;
62673;SDS011;62269;47.594;17.638;2023-07-13T05:17:29;5.80;;;4.47;;
62673;SDS011;62269;47.594;17.638;2023-07-13T05:18:27;5.82;;;4.32;;
62673;SDS011;62269;47.594;17.638;2023-07-13T05:19:24;5.87;;;4.43;;
62673;SDS011;62269;47.594;17.638;2023-07-13T05:20:21;8.13;;;4.40;;
62673;SDS011;62269;47.594;17.638;2023-07-13T05:21:18;8.63;;;4.80;;
62673;SDS011;62269;47.594;17.638;2023-07-13T05:22:15;7.05;;;4.90;;
62673;SDS011;62269;47.594;17.638;2023-07-13T05:23:13;7.78;;;4.40;;
62673;SDS011;62269;47.594;17.638;2023-07-13T05:24:10;7.55;;;4.82;;
62673;SDS011;62269;47.594;17.638;2023-07-13T05:25:21;7.60;;;4.80;;
62673;SDS011;62269;47.594;17.638;2023-07-13T05:26:18;9.60;;;5.55;;
62673;SDS011;62269;47.594;17.638;2023-07-13T05:27:17;7.53;;;4.90;;
62673;SDS011;62269;47.594;17.638;2023-07-13T05:28:14;8.57;;;4.90;;
62673;SDS011;62269;47.594;17.638;2023-07-13T05:29:11;8.75;;;4.70;;
62673;SDS011;62269;47.594;17.638;2023-07-13T05:30:08;5.75;;;4.75;;
62673;SDS011;62269;47.594;17.638;2023-07-13T05:31:08;7.57;;;4.75;;
62673;SDS011;62269;47.594;17.638;2023-07-13T05:32:06;9.60;;;5.50;;
62673;SDS011;62269;47.594;17.638;2023-07-13T05:33:03;7.68;;;4.50;;
62673;SDS011;62269;47.594;17.638;2023-07-13T05:34:01;7.40;;;4.97;;
62673;SDS011;62269;47.594;17.638;2023-07-13T05:34:58;8.98;;;5.70;;
62673;SDS011;62269;47.594;17.638;2023-07-13T05:35:55;7.87;;;4.70;;
62673;SDS011;62269;47.594;17.638;2023-07-13T05:36:52;8.10;;;4.78;;
62673;SDS011;62269;47.594;17.638;2023-07-13T05:37:49;8.00;;;4.62;;
62673;SDS011;62269;47.594;17.638;2023-07-13T05:38:46;8.35;;;4.93;;
62673;SDS011;62269;47.594;17.638;2023-07-13T05:39:43;6.32;;;4.65;;
62673;SDS011;62269;47.594;17.638;2023-07-13T05:40:43;10.70;;;4.82;;
62673;SDS011;62269;47.594;17.638;2023-07-13T05:41:41;5.12;;;4.07;;
62673;SDS011;62269;47.594;17.638;2023-07-13T05:42:38;10.88;;;4.60;;
62673;SDS011;62269;47.594;17.638;2023-07-13T05:43:35;5.68;;;4.62;;
62673;SDS011;62269;47.594;17.638;2023-07-13T05:44:32;9.52;;;4.93;;